Time;durP1;ratioP1;P1;durP2;ratioP2;P2;SDS_P1;SDS_P2;PMS_P1;PMS_P2;Temp;Humidity;BMP_temperature;BMP_pressure;BME280_temperature;BME280_humidity;BME280_pressure;Samples;Min_cycle;Max_cycle;Signal;HPM_P1;HPM_P2
2024/01/29 00:00:49;;;;;;;6.05;2.90;;;3.90;99.90;;;;;;5031873;28;20018;-73
2024/01/29 00:03:15;;;;;;;6.07;3.03;;;3.90;99.90;;;;;;5032374;28;20029;-73
2024/01/29 00:05:41;;;;;;;6.03;3.10;;;3.90;99.90;;;;;;5031873;28;20025;-73
2024/01/29 00:08:06;;;;;;;5.03;2.67;;;3.90;99.90;;;;;;5031938;28;20033;-73
2024/01/29 00:10:32;;;;;;;8.48;3.08;;;3.90;99.90;;;;;;5031742;28;20021;-73
2024/01/29 00:12:58;;;;;;;7.45;3.33;;;3.90;99.90;;;;;;5017893;28;20029;-73
2024/01/29 00:15:23;;;;;;;10.15;3.33;;;3.90;99.90;;;;;;5031760;28;20071;-73
2024/01/29 00:17:49;;;;;;;5.68;2.65;;;3.90;99.90;;;;;;5031414;28;20075;-73
2024/01/29 00:20:15;;;;;;;6.03;2.60;;;3.90;99.90;;;;;;5031687;28;20039;-73
2024/01/29 00:22:40;;;;;;;8.23;3.50;;;3.90;99.90;;;;;;5031593;28;20059;-73
2024/01/29 00:25:07;;;;;;;6.22;2.78;;;3.90;99.90;;;;;;5031394;28;20048;-73
2024/01/29 00:27:33;;;;;;;7.03;3.50;;;3.80;99.90;;;;;;5031440;28;20036;-73
2024/01/29 00:30:01;;;;;;;5.10;2.63;;;3.90;99.90;;;;;;5031527;28;20063;-73
2024/01/29 00:32:27;;;;;;;7.50;3.03;;;3.80;99.90;;;;;;5031545;28;20018;-73
2024/01/29 00:34:53;;;;;;;7.10;2.70;;;3.80;99.90;;;;;;5031281;28;20504;-73
2024/01/29 00:37:19;;;;;;;10.07;3.50;;;3.70;99.90;;;;;;5031588;28;20112;-73
2024/01/29 00:39:45;;;;;;;7.45;3.13;;;3.80;99.90;;;;;;5031268;28;20580;-73
2024/01/29 00:42:11;;;;;;;7.68;2.95;;;3.70;99.90;;;;;;5031340;28;20157;-73
2024/01/29 00:44:36;;;;;;;5.10;2.90;;;3.70;99.90;;;;;;5031535;28;20108;-73
2024/01/29 00:47:02;;;;;;;7.05;3.30;;;3.70;99.90;;;;;;5030913;28;20052;-73
2024/01/29 00:49:31;;;;;;;7.05;2.58;;;3.60;99.90;;;;;;5031240;28;20033;-73
2024/01/29 00:51:57;;;;;;;9.23;3.05;;;3.60;99.90;;;;;;5030999;28;20100;-73
2024/01/29 00:54:22;;;;;;;6.22;2.97;;;3.60;99.90;;;;;;5031411;28;20457;-73
2024/01/29 00:56:48;;;;;;;5.07;2.85;;;3.50;99.90;;;;;;5031182;28;20026;-73
2024/01/29 00:59:14;;;;;;;20.00;8.52;;;3.60;99.90;;;;;;5031151;28;20021;-73
2024/01/29 01:01:39;;;;;;;13.30;5.63;;;3.50;99.90;;;;;;5031721;28;20033;-73
2024/01/29 01:04:05;;;;;;;7.40;4.88;;;3.50;99.90;;;;;;5031036;28;20079;-73
2024/01/29 01:06:31;;;;;;;10.40;3.85;;;3.40;99.90;;;;;;5031072;28;20026;-73
2024/01/29 01:08:56;;;;;;;7.55;3.67;;;3.40;99.90;;;;;;5030691;28;20041;-73
2024/01/29 01:11:22;;;;;;;6.43;3.83;;;3.40;99.90;;;;;;5035321;28;20021;-73
2024/01/29 01:13:49;;;;;;;6.60;2.85;;;3.30;99.90;;;;;;5035026;28;20377;-73
2024/01/29 01:16:15;;;;;;;6.93;3.20;;;3.30;99.90;;;;;;5035256;28;20547;-73
2024/01/29 01:18:40;;;;;;;7.43;3.28;;;3.20;99.90;;;;;;5035168;28;20065;-73
2024/01/29 01:21:06;;;;;;;7.43;3.20;;;3.30;99.90;;;;;;5023739;28;20017;-73
2024/01/29 01:23:31;;;;;;;9.00;3.08;;;3.20;99.90;;;;;;5035169;28;20103;-73
2024/01/29 01:25:57;;;;;;;7.35;3.60;;;3.20;99.90;;;;;;5034746;28;20021;-73
2024/01/29 01:28:23;;;;;;;5.57;2.90;;;3.20;99.90;;;;;;5034865;28;20540;-74
2024/01/29 01:30:48;;;;;;;8.23;3.55;;;3.20;99.90;;;;;;5034624;28;20107;-73
2024/01/29 01:33:14;;;;;;;6.25;3.40;;;3.30;99.90;;;;;;5034901;28;20148;-73
2024/01/29 01:35:39;;;;;;;10.25;3.55;;;3.30;99.90;;;;;;5035036;28;20023;-73
2024/01/29 01:38:05;;;;;;;6.82;3.47;;;3.30;99.90;;;;;;5034569;28;20100;-73
2024/01/29 01:40:31;;;;;;;7.13;3.28;;;3.30;99.90;;;;;;5034980;28;20026;-73
2024/01/29 01:42:56;;;;;;;8.32;3.60;;;3.30;99.90;;;;;;5034260;28;20032;-73
2024/01/29 01:45:22;;;;;;;8.55;3.63;;;3.40;99.90;;;;;;5034836;28;20025;-73
2024/01/29 01:47:47;;;;;;;6.22;3.50;;;3.40;99.90;;;;;;5033948;28;20493;-73
2024/01/29 01:50:14;;;;;;;8.43;3.63;;;3.40;99.90;;;;;;5034340;28;20034;-73
2024/01/29 01:52:40;;;;;;;7.45;3.58;;;3.40;99.90;;;;;;5034574;28;20029;-73
2024/01/29 01:55:06;;;;;;;7.07;2.80;;;3.40;99.90;;;;;;5033911;28;20049;-73
2024/01/29 01:57:32;;;;;;;7.88;3.72;;;3.50;99.90;;;;;;5034562;28;20060;-73
2024/01/29 01:59:58;;;;;;;5.65;3.00;;;3.50;99.90;;;;;;5034009;28;20036;-73
2024/01/29 02:02:24;;;;;;;4.47;2.78;;;3.50;99.90;;;;;;5033522;28;20425;-73
2024/01/29 02:04:49;;;;;;;5.90;3.17;;;3.50;99.90;;;;;;5033952;28;20022;-73
2024/01/29 02:07:15;;;;;;;10.00;3.40;;;3.50;99.90;;;;;;5033986;28;20018;-73
2024/01/29 02:09:41;;;;;;;7.28;3.40;;;3.50;99.90;;;;;;5033890;28;20052;-73
2024/01/29 02:12:08;;;;;;;7.88;3.42;;;3.50;99.90;;;;;;5034267;28;20025;-73
2024/01/29 02:14:34;;;;;;;5.47;3.30;;;3.50;99.90;;;;;;5034224;28;20064;-73
2024/01/29 02:17:00;;;;;;;7.13;3.10;;;3.60;99.90;;;;;;5033828;28;20014;-73
2024/01/29 02:19:25;;;;;;;5.53;3.05;;;3.60;99.90;;;;;;5033845;28;20083;-73
2024/01/29 02:21:52;;;;;;;5.28;3.28;;;3.60;99.90;;;;;;5031501;28;20033;-73
2024/01/29 02:24:17;;;;;;;6.60;2.60;;;3.60;99.90;;;;;;5034203;28;20026;-73
2024/01/29 02:26:47;;;;;;;7.78;3.72;;;3.60;99.90;;;;;;5037566;28;20044;-73
2024/01/29 02:29:13;;;;;;;9.02;2.78;;;3.70;99.90;;;;;;5036868;28;20501;-73
2024/01/29 02:31:39;;;;;;;6.10;3.28;;;3.60;99.90;;;;;;5033922;28;20041;-73
2024/01/29 02:34:05;;;;;;;5.78;3.03;;;3.60;99.90;;;;;;5033301;28;20162;-73
2024/01/29 02:36:30;;;;;;;6.20;3.40;;;3.70;99.90;;;;;;5033785;28;20026;-73
2024/01/29 02:38:56;;;;;;;6.38;2.97;;;3.60;99.90;;;;;;5039207;28;20022;-73
2024/01/29 02:41:21;;;;;;;8.20;3.42;;;3.60;99.90;;;;;;5033672;28;20061;-73
2024/01/29 02:43:47;;;;;;;8.43;3.58;;;3.60;99.90;;;;;;5033324;28;20075;-73
2024/01/29 02:46:12;;;;;;;6.28;3.13;;;3.50;99.90;;;;;;5033697;28;20565;-73
2024/01/29 02:48:39;;;;;;;5.40;2.70;;;3.50;99.90;;;;;;5032578;28;20317;-73
2024/01/29 02:51:06;;;;;;;7.35;3.70;;;3.50;99.90;;;;;;5032607;28;20029;-73
2024/01/29 02:53:31;;;;;;;8.85;3.55;;;3.50;99.90;;;;;;5033422;28;20017;-73
2024/01/29 02:55:57;;;;;;;12.13;3.67;;;3.40;99.90;;;;;;5031766;28;20385;-73
2024/01/29 02:58:22;;;;;;;5.80;3.03;;;3.40;99.90;;;;;;5036888;28;20436;-73
2024/01/29 03:00:48;;;;;;;8.10;3.42;;;3.40;99.90;;;;;;5038653;28;20041;-74
2024/01/29 03:03:13;;;;;;;7.65;2.92;;;3.40;99.90;;;;;;5033273;28;20022;-73
2024/01/29 03:05:39;;;;;;;8.82;3.50;;;3.40;99.90;;;;;;5032968;28;20025;-73
2024/01/29 03:08:06;;;;;;;6.97;3.78;;;3.40;99.90;;;;;;5032482;28;20059;-74
2024/01/29 03:10:32;;;;;;;7.68;4.30;;;3.40;99.90;;;;;;5040785;28;20041;-73
2024/01/29 03:12:58;;;;;;;28.17;11.43;;;3.30;99.90;;;;;;5021993;28;20029;-73
2024/01/29 03:15:24;;;;;;;16.65;7.00;;;3.30;99.90;;;;;;5013369;28;20026;-73
2024/01/29 03:17:50;;;;;;;12.52;4.72;;;3.30;99.90;;;;;;5028026;28;20025;-73
2024/01/29 03:20:16;;;;;;;7.65;3.85;;;3.30;99.90;;;;;;5037516;28;20469;-73
2024/01/29 03:22:41;;;;;;;6.35;3.45;;;3.30;99.90;;;;;;5034545;28;20040;-74
2024/01/29 03:25:07;;;;;;;4.88;3.55;;;3.30;99.90;;;;;;5032955;28;20148;-73
2024/01/29 03:27:33;;;;;;;10.52;4.00;;;3.30;99.90;;;;;;5032786;28;20017;-73
2024/01/29 03:29:58;;;;;;;5.90;3.47;;;3.30;99.90;;;;;;5033913;28;20115;-73
2024/01/29 03:32:24;;;;;;;7.70;3.58;;;3.30;99.90;;;;;;5031715;28;20029;-73
2024/01/29 03:34:49;;;;;;;6.75;3.30;;;3.30;99.90;;;;;;5032131;28;20500;-73
2024/01/29 03:37:15;;;;;;;6.85;3.60;;;3.30;99.90;;;;;;5032708;28;20385;-73
2024/01/29 03:39:41;;;;;;;8.43;3.63;;;3.30;99.90;;;;;;5033583;28;20017;-73
2024/01/29 03:42:06;;;;;;;8.02;3.47;;;3.20;99.90;;;;;;5052182;28;20029;-73
2024/01/29 03:44:32;;;;;;;7.03;3.88;;;3.20;99.90;;;;;;5034450;28;20025;-73
2024/01/29 03:46:58;;;;;;;9.10;4.57;;;3.20;99.90;;;;;;5032391;28;20028;-73
2024/01/29 03:49:23;;;;;;;7.88;3.70;;;3.20;99.90;;;;;;5030590;28;20457;-73
2024/01/29 03:51:49;;;;;;;7.63;3.40;;;3.20;99.90;;;;;;5034851;28;20108;-73
2024/01/29 03:54:15;;;;;;;8.25;3.40;;;3.20;99.90;;;;;;5032212;28;20038;-73
2024/01/29 03:56:40;;;;;;;6.28;3.72;;;3.20;99.90;;;;;;5032248;28;20030;-73
2024/01/29 03:59:10;;;;;;;7.85;3.80;;;3.20;99.90;;;;;;5031694;28;20035;-73
2024/01/29 04:01:37;;;;;;;5.82;3.65;;;3.20;99.90;;;;;;5040447;28;20017;-73
2024/01/29 04:04:02;;;;;;;9.88;3.95;;;3.20;99.90;;;;;;5051563;28;20469;-73
2024/01/29 04:06:28;;;;;;;8.48;5.07;;;3.20;99.90;;;;;;5036603;28;20071;-73
2024/01/29 04:08:54;;;;;;;10.00;5.00;;;3.20;99.90;;;;;;5030270;28;20041;-73
2024/01/29 04:11:19;;;;;;;7.60;4.10;;;3.20;99.90;;;;;;5031669;28;20544;-73
2024/01/29 04:13:45;;;;;;;8.48;3.95;;;3.20;99.90;;;;;;5031840;28;20071;-73
2024/01/29 04:16:11;;;;;;;6.57;3.95;;;3.20;99.90;;;;;;5031702;28;20034;-73
2024/01/29 04:18:38;;;;;;;7.88;3.47;;;3.10;99.90;;;;;;5031656;28;20029;-73
2024/01/29 04:21:05;;;;;;;6.70;3.47;;;3.10;99.90;;;;;;5031513;28;20159;-73
2024/01/29 04:23:32;;;;;;;6.57;3.78;;;3.10;99.90;;;;;;5042748;28;20047;-73
2024/01/29 04:25:57;;;;;;;9.05;4.35;;;3.10;99.90;;;;;;5034101;28;20021;-73
2024/01/29 04:28:23;;;;;;;6.60;3.72;;;3.10;99.90;;;;;;5030436;28;20045;-73
2024/01/29 04:30:49;;;;;;;7.70;4.38;;;3.10;99.90;;;;;;5031235;28;20087;-74
2024/01/29 04:33:14;;;;;;;10.80;4.05;;;3.00;99.90;;;;;;5031268;28;20029;-73
2024/01/29 04:35:40;;;;;;;5.80;3.63;;;3.00;99.90;;;;;;5051417;28;20385;-73
2024/01/29 04:38:05;;;;;;;13.05;4.72;;;3.00;99.90;;;;;;5036976;28;20029;-73
2024/01/29 04:40:33;;;;;;;9.38;3.95;;;3.00;99.90;;;;;;5031689;28;20060;-73
2024/01/29 04:42:58;;;;;;;9.48;4.05;;;3.00;99.90;;;;;;5030598;28;20075;-73
2024/01/29 04:45:24;;;;;;;7.90;3.55;;;3.00;99.90;;;;;;5032425;28;20033;-73
2024/01/29 04:47:49;;;;;;;7.80;4.20;;;3.00;99.90;;;;;;5029499;28;20054;-73
2024/01/29 04:50:15;;;;;;;8.15;4.10;;;3.00;99.90;;;;;;5031174;28;20421;-73
2024/01/29 04:52:41;;;;;;;8.27;4.20;;;3.00;99.90;;;;;;5031261;28;20109;-73
2024/01/29 04:55:07;;;;;;;8.52;3.63;;;3.00;99.90;;;;;;5043574;28;20095;-73
2024/01/29 04:57:32;;;;;;;7.57;4.07;;;3.00;99.90;;;;;;5037657;28;20083;-73
2024/01/29 04:59:58;;;;;;;7.70;3.95;;;3.00;99.90;;;;;;5031118;28;20024;-73
2024/01/29 05:02:24;;;;;;;6.28;4.18;;;3.00;99.90;;;;;;5029929;28;20025;-73
2024/01/29 05:04:50;;;;;;;5.65;3.22;;;3.00;99.90;;;;;;5031557;28;20061;-73
2024/01/29 05:07:16;;;;;;;8.65;4.60;;;3.00;99.90;;;;;;5031211;28;20052;-73
2024/01/29 05:09:41;;;;;;;7.28;3.78;;;3.00;99.90;;;;;;5030787;28;20038;-73
2024/01/29 05:12:07;;;;;;;7.10;3.70;;;3.00;99.90;;;;;;5031152;28;20470;-73
2024/01/29 05:14:33;;;;;;;9.45;4.22;;;3.00;99.90;;;;;;5031228;28;20025;-73
2024/01/29 05:16:58;;;;;;;9.55;4.32;;;3.10;99.90;;;;;;5030941;28;20037;-73
2024/01/29 05:19:24;;;;;;;7.05;3.70;;;3.10;99.90;;;;;;5029695;28;20029;-73
2024/01/29 05:21:50;;;;;;;7.10;4.45;;;3.10;99.90;;;;;;5038398;28;20082;-73
2024/01/29 05:24:15;;;;;;;11.75;4.95;;;3.20;99.90;;;;;;5031238;28;20125;-73
2024/01/29 05:26:41;;;;;;;7.80;5.00;;;3.20;99.90;;;;;;5031311;28;20101;-73
2024/01/29 05:29:07;;;;;;;11.20;4.95;;;3.40;99.90;;;;;;5031091;28;20041;-73
2024/01/29 05:31:32;;;;;;;10.80;4.47;;;3.40;99.90;;;;;;5031828;28;20531;-73
2024/01/29 05:33:58;;;;;;;8.43;4.30;;;3.40;99.90;;;;;;5030384;28;20116;-73
2024/01/29 05:36:24;;;;;;;8.80;4.07;;;3.40;99.90;;;;;;5031118;28;20108;-73
2024/01/29 05:38:49;;;;;;;9.25;4.75;;;3.30;99.90;;;;;;5031033;28;20466;-73
2024/01/29 05:41:15;;;;;;;6.80;3.70;;;3.40;99.90;;;;;;5030982;28;20032;-73
2024/01/29 05:43:40;;;;;;;10.27;4.93;;;3.40;99.90;;;;;;5031242;28;20120;-73
2024/01/29 05:46:06;;;;;;;7.10;4.22;;;3.40;99.90;;;;;;5030868;28;20025;-73
2024/01/29 05:48:31;;;;;;;7.18;3.88;;;3.40;99.90;;;;;;5029393;28;20128;-72
2024/01/29 05:50:57;;;;;;;9.18;4.68;;;3.40;99.90;;;;;;5030303;28;20480;-73
2024/01/29 05:53:23;;;;;;;7.07;3.53;;;3.40;99.90;;;;;;5030676;28;20105;-73
2024/01/29 05:55:48;;;;;;;7.90;4.25;;;3.40;99.90;;;;;;5032025;28;20405;-73
2024/01/29 05:58:14;;;;;;;6.75;4.20;;;3.40;99.90;;;;;;5034690;28;20030;-73
2024/01/29 06:00:40;;;;;;;7.45;4.22;;;3.50;99.90;;;;;;5034298;28;20100;-73
2024/01/29 06:03:05;;;;;;;7.20;4.75;;;3.50;99.90;;;;;;5039435;28;20021;-73
2024/01/29 06:05:31;;;;;;;6.90;4.15;;;3.50;99.90;;;;;;5034147;28;20092;-73
2024/01/29 06:07:56;;;;;;;10.38;4.57;;;3.60;99.90;;;;;;5033677;28;20030;-73
2024/01/29 06:10:22;;;;;;;9.27;5.30;;;3.60;99.90;;;;;;5034401;28;20030;-73
2024/01/29 06:12:48;;;;;;;9.40;4.88;;;3.70;99.90;;;;;;5033738;28;20504;-73
2024/01/29 06:15:13;;;;;;;12.68;4.72;;;3.70;99.90;;;;;;5034188;28;20025;-72
2024/01/29 06:17:40;;;;;;;7.55;4.60;;;3.80;99.90;;;;;;5034020;28;20034;-73
2024/01/29 06:20:06;;;;;;;8.32;4.40;;;3.80;99.90;;;;;;5033461;28;20028;-73
2024/01/29 06:22:32;;;;;;;8.80;4.32;;;3.90;99.90;;;;;;5038381;28;20032;-73
2024/01/29 06:24:57;;;;;;;8.65;4.47;;;3.90;99.90;;;;;;5044511;28;20030;-73
2024/01/29 06:27:23;;;;;;;8.10;4.68;;;3.90;99.90;;;;;;5033769;28;20024;-73
2024/01/29 06:29:48;;;;;;;8.52;4.30;;;3.90;99.90;;;;;;5033277;28;20152;-73
2024/01/29 06:32:14;;;;;;;9.52;4.47;;;3.90;99.90;;;;;;5033920;28;20040;-73
2024/01/29 06:34:40;;;;;;;12.48;5.57;;;3.90;99.90;;;;;;5032697;28;20026;-73
2024/01/29 06:37:05;;;;;;;7.82;4.32;;;3.90;99.90;;;;;;5033514;28;20093;-73
2024/01/29 06:39:32;;;;;;;8.32;4.78;;;3.90;99.90;;;;;;5033659;28;20018;-73
2024/01/29 06:41:58;;;;;;;7.22;4.43;;;3.90;99.90;;;;;;5032749;28;20024;-73
2024/01/29 06:44:23;;;;;;;9.43;5.03;;;3.90;99.90;;;;;;5033785;28;20033;-73
2024/01/29 06:46:49;;;;;;;9.60;4.68;;;3.90;99.90;;;;;;5033074;28;20040;-73
2024/01/29 06:49:31;;;;;;;6.95;3.97;;;3.90;99.90;;;;;;5033154;28;20429;-73
2024/01/29 06:51:57;;;;;;;8.30;4.40;;;3.90;99.90;;;;;;5037157;28;20025;-73
2024/01/29 06:54:24;;;;;;;9.45;4.75;;;3.90;99.90;;;;;;5032308;28;20038;-73
2024/01/29 06:56:50;;;;;;;5.80;4.00;;;3.80;99.90;;;;;;5032869;28;20101;-73
2024/01/29 06:59:16;;;;;;;8.60;4.60;;;3.80;99.90;;;;;;5033409;28;20033;-73
2024/01/29 07:01:42;;;;;;;6.35;3.95;;;3.70;99.90;;;;;;5032639;28;20018;-73
2024/01/29 07:04:08;;;;;;;10.27;4.28;;;3.70;99.90;;;;;;5049427;28;20029;-73
2024/01/29 07:06:33;;;;;;;7.57;4.07;;;3.70;99.90;;;;;;5033117;28;20018;-73
2024/01/29 07:08:59;;;;;;;11.02;4.85;;;3.60;99.90;;;;;;5032796;28;20120;-73
2024/01/29 07:11:24;;;;;;;8.75;4.50;;;3.60;99.90;;;;;;5040610;28;20437;-73
2024/01/29 07:13:50;;;;;;;9.95;4.93;;;3.60;99.90;;;;;;5032525;28;20037;-73
2024/01/29 07:16:16;;;;;;;9.43;4.50;;;3.60;99.90;;;;;;5032668;28;20097;-73
2024/01/29 07:18:41;;;;;;;9.18;5.15;;;3.60;99.90;;;;;;5033145;28;20031;-73
2024/01/29 07:21:09;;;;;;;6.43;4.40;;;3.60;99.90;;;;;;5032402;28;20029;-73
2024/01/29 07:23:35;;;;;;;7.65;4.53;;;3.60;99.90;;;;;;5032587;28;20104;-73
2024/01/29 07:26:00;;;;;;;8.15;4.70;;;3.60;99.90;;;;;;5032230;28;20114;-73
2024/01/29 07:28:26;;;;;;;9.68;4.95;;;3.60;99.90;;;;;;5033062;28;20503;-73
2024/01/29 07:30:51;;;;;;;9.20;4.32;;;3.60;99.90;;;;;;5032552;28;20377;-73
2024/01/29 07:33:17;;;;;;;11.60;5.15;;;3.60;99.90;;;;;;5047214;28;20032;-73
2024/01/29 07:35:43;;;;;;;7.50;3.78;;;3.60;99.90;;;;;;5036763;28;20052;-74
2024/01/29 07:38:08;;;;;;;8.70;4.75;;;3.60;99.90;;;;;;5032688;28;20042;-73
2024/01/29 07:40:34;;;;;;;9.23;4.70;;;3.60;99.90;;;;;;5032450;28;20026;-73
2024/01/29 07:43:00;;;;;;;7.55;4.53;;;3.70;99.90;;;;;;5023788;28;20052;-73
2024/01/29 07:45:25;;;;;;;10.07;4.20;;;3.70;99.90;;;;;;5032484;28;20045;-73
2024/01/29 07:47:52;;;;;;;7.25;4.65;;;3.70;99.90;;;;;;5031038;28;20050;-73
2024/01/29 07:50:17;;;;;;;10.70;4.70;;;3.80;99.90;;;;;;5032435;28;20030;-73
2024/01/29 07:52:43;;;;;;;13.38;5.07;;;3.80;99.90;;;;;;5031337;28;20040;-73
2024/01/29 07:55:09;;;;;;;8.57;4.50;;;3.90;99.90;;;;;;5036927;28;20088;-73
2024/01/29 07:57:35;;;;;;;8.98;4.30;;;4.00;99.90;;;;;;5032353;28;20032;-73
2024/01/29 08:00:01;;;;;;;8.88;4.95;;;4.10;99.90;;;;;;5032437;28;20039;-73
2024/01/29 08:02:27;;;;;;;7.97;5.18;;;4.10;99.90;;;;;;5049703;28;20025;-73
2024/01/29 08:04:52;;;;;;;12.10;5.50;;;4.20;99.90;;;;;;5043007;28;20061;-73
2024/01/29 08:07:18;;;;;;;7.82;4.90;;;4.20;99.90;;;;;;5032080;28;20021;-73
2024/01/29 08:09:45;;;;;;;9.27;5.63;;;4.30;99.90;;;;;;5031234;28;20045;-73
2024/01/29 08:12:10;;;;;;;8.00;4.85;;;4.30;99.90;;;;;;5042128;28;20427;-73
2024/01/29 08:14:36;;;;;;;10.13;4.50;;;4.30;99.90;;;;;;5052030;28;20082;-73
2024/01/29 08:17:01;;;;;;;8.93;4.10;;;4.40;99.90;;;;;;5041496;28;20061;-73
2024/01/29 08:19:27;;;;;;;8.52;4.80;;;4.40;99.90;;;;;;5031798;28;20025;-73
2024/01/29 08:21:53;;;;;;;6.90;4.35;;;4.50;99.90;;;;;;5044779;28;20009;-73
2024/01/29 08:24:20;;;;;;;8.73;4.75;;;4.60;99.90;;;;;;5051823;28;20443;-73
2024/01/29 08:26:45;;;;;;;7.68;4.28;;;4.60;99.90;;;;;;5043408;28;20112;-73
2024/01/29 08:29:11;;;;;;;8.52;4.85;;;4.70;99.90;;;;;;5031698;28;20577;-73
2024/01/29 08:31:38;;;;;;;8.63;4.68;;;4.80;99.90;;;;;;5039249;28;20039;-73
2024/01/29 08:34:04;;;;;;;9.77;4.40;;;4.80;99.90;;;;;;5022421;28;20060;-73
2024/01/29 08:36:30;;;;;;;8.70;5.00;;;4.90;99.90;;;;;;5031736;28;20489;-73
2024/01/29 08:38:56;;;;;;;8.88;5.15;;;4.90;99.90;;;;;;5031218;28;20112;-73
2024/01/29 08:41:21;;;;;;;7.93;4.65;;;5.00;99.90;;;;;;5031943;28;20108;-73
2024/01/29 08:43:47;;;;;;;9.68;4.95;;;5.10;99.90;;;;;;5030731;28;20097;-73
2024/01/29 08:46:13;;;;;;;10.90;5.68;;;5.10;99.90;;;;;;5030150;28;20025;-73
2024/01/29 08:48:38;;;;;;;11.02;5.63;;;5.20;99.90;;;;;;5031152;28;20065;-73
2024/01/29 08:51:04;;;;;;;8.85;4.65;;;5.30;99.90;;;;;;5030707;28;20032;-73
2024/01/29 08:53:30;;;;;;;9.23;5.15;;;5.30;99.90;;;;;;5041616;28;20037;-73
2024/01/29 08:55:55;;;;;;;8.02;4.78;;;5.40;99.90;;;;;;5031014;28;20060;-73
2024/01/29 08:58:21;;;;;;;10.02;5.00;;;5.40;99.90;;;;;;5031267;28;20032;-73
2024/01/29 09:00:52;;;;;;;6.60;4.65;;;5.50;99.90;;;;;;5030916;28;20018;-73
2024/01/29 09:03:18;;;;;;;12.18;4.85;;;5.50;99.90;;;;;;5031156;28;20026;-73
2024/01/29 09:05:44;;;;;;;8.23;5.40;;;5.60;99.90;;;;;;5030711;28;20033;-74
2024/01/29 09:08:09;;;;;;;14.68;5.45;;;5.60;99.90;;;;;;5030873;28;20449;-73
2024/01/29 09:10:35;;;;;;;10.35;5.30;;;5.60;99.90;;;;;;5030989;28;20037;-73
2024/01/29 09:13:01;;;;;;;10.55;5.57;;;5.70;99.90;;;;;;5031648;28;20531;-73
2024/01/29 09:15:27;;;;;;;9.65;5.13;;;5.70;99.90;;;;;;5030875;28;20036;-73
2024/01/29 09:17:52;;;;;;;7.75;5.10;;;5.70;99.90;;;;;;5030543;28;20034;-73
2024/01/29 09:20:18;;;;;;;8.95;5.47;;;5.80;99.90;;;;;;5031180;28;20021;-73
2024/01/29 09:22:44;;;;;;;10.07;5.45;;;5.80;99.90;;;;;;5036855;28;20087;-73
2024/01/29 09:25:09;;;;;;;10.02;5.13;;;5.80;99.90;;;;;;5031339;28;20132;-73
2024/01/29 09:27:35;;;;;;;8.40;5.82;;;5.90;99.90;;;;;;5031103;28;20027;-73
2024/01/29 09:30:02;;;;;;;10.15;5.68;;;5.90;99.90;;;;;;5030776;28;20035;-73
2024/01/29 09:32:28;;;;;;;7.60;4.72;;;6.00;99.90;;;;;;5042814;28;20021;-73
2024/01/29 09:34:53;;;;;;;10.77;5.63;;;6.10;99.90;;;;;;5036899;28;20048;-73
2024/01/29 09:37:19;;;;;;;8.30;5.65;;;6.20;99.90;;;;;;5035281;28;20104;-73
2024/01/29 09:39:45;;;;;;;11.65;5.75;;;6.30;99.90;;;;;;5051764;28;20036;-73
2024/01/29 09:42:17;;;;;;;9.00;5.30;;;6.40;99.90;;;;;;5043419;28;20022;-73
2024/01/29 09:44:45;;;;;;;11.05;5.32;;;6.50;99.90;;;;;;5034317;28;20021;-73
2024/01/29 09:47:13;;;;;;;8.95;5.75;;;6.60;99.90;;;;;;5040008;28;20025;-73
2024/01/29 09:49:39;;;;;;;10.25;5.40;;;6.80;99.90;;;;;;5050518;28;20120;-73
2024/01/29 09:52:14;;;;;;;15.77;5.43;;;6.90;99.90;;;;;;5034609;28;20536;-73
2024/01/29 09:54:41;;;;;;;9.80;5.70;;;7.00;99.90;;;;;;5034163;28;20512;-73
2024/01/29 09:57:12;;;;;;;6.68;4.65;;;7.00;99.90;;;;;;5034047;28;20025;-73
2024/01/29 09:59:38;;;;;;;9.77;5.78;;;7.10;99.90;;;;;;5034031;28;20101;-73
2024/01/29 10:02:04;;;;;;;9.25;5.45;;;7.20;99.90;;;;;;5033947;28;20026;-73
2024/01/29 10:04:30;;;;;;;9.65;5.43;;;7.30;99.90;;;;;;5034273;28;20022;-73
2024/01/29 10:06:56;;;;;;;8.32;5.00;;;7.30;99.90;;;;;;5041360;28;20048;-73
2024/01/29 10:09:22;;;;;;;10.27;5.90;;;7.40;99.90;;;;;;5034236;28;20553;-73
2024/01/29 10:11:49;;;;;;;11.07;6.05;;;7.40;99.90;;;;;;5033778;28;20060;-74
2024/01/29 10:14:16;;;;;;;8.13;5.55;;;7.50;99.90;;;;;;5033766;28;20072;-73
2024/01/29 10:16:42;;;;;;;8.45;5.68;;;7.50;99.90;;;;;;5041262;28;20029;-73
2024/01/29 10:19:09;;;;;;;11.65;6.05;;;7.60;99.90;;;;;;5034593;28;20100;-73
2024/01/29 10:21:39;;;;;;;10.70;5.60;;;7.60;99.90;;;;;;5034297;28;20156;-74
2024/01/29 10:24:11;;;;;;;9.23;5.80;;;7.70;99.90;;;;;;5033732;28;20335;-73
2024/01/29 10:26:36;;;;;;;7.35;4.97;;;7.70;99.90;;;;;;5033728;28;20025;-73
2024/01/29 10:29:06;;;;;;;9.77;5.43;;;7.80;99.90;;;;;;5033213;28;20056;-73
2024/01/29 10:31:32;;;;;;;12.35;6.00;;;7.80;99.90;;;;;;5034087;28;20022;-73
2024/01/29 10:33:59;;;;;;;10.88;6.05;;;7.90;99.90;;;;;;5033355;28;20025;-74
2024/01/29 10:36:26;;;;;;;8.57;5.28;;;7.90;99.90;;;;;;5033699;28;20477;-73
2024/01/29 10:38:52;;;;;;;9.88;5.80;;;8.00;99.90;;;;;;5051741;28;20036;-73
2024/01/29 10:41:20;;;;;;;10.52;5.70;;;8.00;99.90;;;;;;5051896;28;20370;-73
2024/01/29 10:43:51;;;;;;;10.75;6.00;;;8.00;99.90;;;;;;5036151;28;20025;-73
2024/01/29 10:46:21;;;;;;;9.43;6.03;;;8.00;99.90;;;;;;5033606;28;20386;-73
2024/01/29 10:48:48;;;;;;;8.07;5.65;;;8.10;99.90;;;;;;5032994;28;20100;-73
2024/01/29 10:51:14;;;;;;;11.32;6.30;;;8.20;99.90;;;;;;5033197;28;20053;-74
2024/01/29 10:53:44;;;;;;;9.88;5.75;;;8.30;99.90;;;;;;5033230;28;20501;-73
2024/01/29 10:56:11;;;;;;;9.27;5.90;;;8.30;99.90;;;;;;5034052;28;20451;-73
2024/01/29 10:58:38;;;;;;;10.15;5.93;;;8.40;99.90;;;;;;5033049;28;20108;-73
2024/01/29 11:01:05;;;;;;;10.32;6.22;;;8.50;99.90;;;;;;5033102;28;20056;-73
2024/01/29 11:03:33;;;;;;;10.38;5.80;;;8.60;99.90;;;;;;5033118;28;20104;-73
2024/01/29 11:06:24;;;;;;;10.85;6.60;;;8.60;99.90;;;;;;5032621;28;20505;-73
2024/01/29 11:08:56;;;;;;;12.55;6.15;;;8.80;99.90;;;;;;5026671;28;20096;-74
2024/01/29 11:11:25;;;;;;;9.48;6.55;;;8.90;99.90;;;;;;5033208;28;20044;-73
2024/01/29 11:13:51;;;;;;;8.40;6.05;;;8.90;99.90;;;;;;5032982;28;20456;-73
2024/01/29 11:16:16;;;;;;;10.57;6.75;;;9.00;99.90;;;;;;5045514;28;20104;-73
2024/01/29 11:18:42;;;;;;;9.95;6.45;;;9.10;99.90;;;;;;5046191;28;20021;-73
2024/01/29 11:21:14;;;;;;;8.93;5.85;;;9.10;99.90;;;;;;5032568;28;20474;-73
2024/01/29 11:23:47;;;;;;;11.20;6.35;;;9.20;99.90;;;;;;5032780;28;20030;-74
2024/01/29 11:26:15;;;;;;;12.18;6.40;;;9.30;99.90;;;;;;5033147;28;20052;-73
2024/01/29 11:28:41;;;;;;;11.32;6.95;;;9.30;99.90;;;;;;5045628;28;20487;-74
2024/01/29 11:31:13;;;;;;;11.15;7.38;;;9.40;99.90;;;;;;5035778;28;20108;-73
2024/01/29 11:33:39;;;;;;;10.20;6.25;;;9.50;99.90;;;;;;5032471;28;20030;-73
2024/01/29 11:36:07;;;;;;;10.48;7.03;;;9.50;99.90;;;;;;5035962;28;20044;-74
2024/01/29 11:38:32;;;;;;;9.43;6.13;;;9.60;99.90;;;;;;5042334;28;20116;-74
2024/01/29 11:41:01;;;;;;;12.88;6.85;;;9.70;99.90;;;;;;5042387;28;20474;-74
2024/01/29 11:43:26;;;;;;;8.85;6.70;;;9.80;99.90;;;;;;5032354;28;20025;-74
2024/01/29 11:45:54;;;;;;;12.88;6.90;;;9.80;99.90;;;;;;5031931;28;20053;-73
2024/01/29 11:48:26;;;;;;;11.68;7.07;;;9.90;99.90;;;;;;5031436;28;20083;-74
2024/01/29 11:50:53;;;;;;;10.50;6.15;;;10.00;99.90;;;;;;5030876;28;20377;-74
2024/01/29 11:53:23;;;;;;;10.90;7.10;;;10.00;99.90;;;;;;5031545;28;20034;-73
2024/01/29 11:55:49;;;;;;;15.32;7.45;;;10.00;99.90;;;;;;5031590;28;20092;-74
2024/01/29 11:58:19;;;;;;;14.20;7.32;;;10.10;99.90;;;;;;5045725;28;20477;-74
2024/01/29 12:00:46;;;;;;;11.57;7.00;;;10.10;99.90;;;;;;5043908;28;20389;-74
2024/01/29 12:03:19;;;;;;;11.07;7.07;;;10.10;99.90;;;;;;5031961;28;20489;-73
2024/01/29 12:05:45;;;;;;;10.15;6.63;;;10.10;99.90;;;;;;5031347;28;20529;-74
2024/01/29 12:08:15;;;;;;;12.38;7.45;;;10.10;99.90;;;;;;5041499;28;20068;-73
2024/01/29 12:10:45;;;;;;;14.20;7.35;;;10.20;99.90;;;;;;5045121;28;20029;-73
2024/01/29 12:13:15;;;;;;;11.23;7.85;;;10.20;99.90;;;;;;5031792;28;20028;-73
2024/01/29 12:15:41;;;;;;;10.75;7.32;;;10.20;99.90;;;;;;5031772;28;20025;-73
2024/01/29 12:18:13;;;;;;;12.90;6.88;;;10.20;99.90;;;;;;5031840;28;20029;-74
2024/01/29 12:20:39;;;;;;;;;;;10.20;99.90;;;;;;5031997;28;20485;-74
2024/01/29 12:23:05;;;;;;;10.57;6.82;;;10.20;99.90;;;;;;5031615;28;19905;-73
2024/01/29 12:25:31;;;;;;;8.93;6.35;;;10.20;99.90;;;;;;5031714;28;20072;-74
2024/01/29 12:28:09;;;;;;;10.88;7.50;;;10.30;99.90;;;;;;5029115;28;20079;-74
2024/01/29 12:30:35;;;;;;;10.98;8.23;;;10.40;99.90;;;;;;5031517;28;20030;-73
2024/01/29 12:33:00;;;;;;;13.65;7.97;;;10.40;99.90;;;;;;5030982;28;20355;-73
2024/01/29 12:35:31;;;;;;;11.85;7.65;;;10.50;99.90;;;;;;5031805;28;20124;-74
2024/01/29 12:38:23;;;;;;;13.52;8.00;;;10.50;99.90;;;;;;5031173;28;20462;-73
2024/01/29 12:40:55;;;;;;;13.15;6.97;;;10.60;99.90;;;;;;5024730;28;20045;-74
2024/01/29 12:43:28;;;;;;;9.77;6.75;;;10.60;99.90;;;;;;5031552;28;20068;-74
2024/01/29 12:46:11;;;;;;;13.35;6.60;;;10.70;99.90;;;;;;5031554;28;20036;-73
2024/01/29 12:48:37;;;;;;;9.65;6.97;;;10.70;99.90;;;;;;5011483;28;20106;-74